sensor_id;sensor_type;location;lat;lon;timestamp;P1;durP1;ratioP1;P2;durP2;ratioP2
22168;SDS011;11250;53.674;10.102;2022-12-11T15:50:17;38.78;;;22.80;;
22168;SDS011;11250;53.674;10.102;2022-12-11T15:52:43;35.40;;;21.30;;
22168;SDS011;11250;53.674;10.102;2022-12-11T15:55:08;40.25;;;24.13;;
22168;SDS011;11250;53.674;10.102;2022-12-11T15:57:34;45.00;;;26.90;;
22168;SDS011;11250;53.674;10.102;2022-12-11T15:59:59;42.20;;;26.90;;
22168;SDS011;11250;53.674;10.102;2022-12-11T16:02:25;47.28;;;27.63;;
22168;SDS011;11250;53.674;10.102;2022-12-11T16:04:52;54.33;;;29.30;;
22168;SDS011;11250;53.674;10.102;2022-12-11T16:07:18;50.80;;;30.35;;
22168;SDS011;11250;53.674;10.102;2022-12-11T16:09:44;50.17;;;31.75;;
22168;SDS011;11250;53.674;10.102;2022-12-11T16:12:09;55.40;;;31.75;;
22168;SDS011;11250;53.674;10.102;2022-12-11T16:14:34;48.88;;;30.70;;
22168;SDS011;11250;53.674;10.102;2022-12-11T16:17:04;54.67;;;31.98;;
22168;SDS011;11250;53.674;10.102;2022-12-11T16:19:29;52.75;;;31.05;;
22168;SDS011;11250;53.674;10.102;2022-12-11T16:21:55;55.58;;;34.13;;
22168;SDS011;11250;53.674;10.102;2022-12-11T16:24:26;63.90;;;37.22;;
22168;SDS011;11250;53.674;10.102;2022-12-11T16:26:51;53.05;;;31.30;;
22168;SDS011;11250;53.674;10.102;2022-12-11T16:29:16;56.03;;;32.33;;
22168;SDS011;11250;53.674;10.102;2022-12-11T16:31:42;53.63;;;32.07;;
22168;SDS011;11250;53.674;10.102;2022-12-11T16:34:07;57.17;;;32.15;;
22168;SDS011;11250;53.674;10.102;2022-12-11T16:36:32;54.80;;;33.50;;
22168;SDS011;11250;53.674;10.102;2022-12-11T16:38:58;55.05;;;32.13;;
22168;SDS011;11250;53.674;10.102;2022-12-11T16:41:23;51.45;;;31.13;;
22168;SDS011;11250;53.674;10.102;2022-12-11T16:43:48;56.92;;;33.42;;
22168;SDS011;11250;53.674;10.102;2022-12-11T16:46:17;57.20;;;32.90;;
22168;SDS011;11250;53.674;10.102;2022-12-11T16:48:43;60.88;;;37.55;;
22168;SDS011;11250;53.674;10.102;2022-12-11T16:51:08;62.45;;;38.95;;
22168;SDS011;11250;53.674;10.102;2022-12-11T16:53:33;62.67;;;38.17;;
22168;SDS011;11250;53.674;10.102;2022-12-11T16:56:47;57.65;;;34.35;;
22168;SDS011;11250;53.674;10.102;2022-12-11T16:59:12;56.58;;;33.72;;
22168;SDS011;11250;53.674;10.102;2022-12-11T17:01:38;57.17;;;32.43;;
22168;SDS011;11250;53.674;10.102;2022-12-11T17:04:03;54.45;;;32.78;;
22168;SDS011;11250;53.674;10.102;2022-12-11T17:06:28;56.67;;;32.53;;
22168;SDS011;11250;53.674;10.102;2022-12-11T17:08:53;54.97;;;33.47;;
22168;SDS011;11250;53.674;10.102;2022-12-11T17:11:20;47.75;;;31.00;;
22168;SDS011;11250;53.674;10.102;2022-12-11T17:13:45;56.65;;;33.80;;
22168;SDS011;11250;53.674;10.102;2022-12-11T17:16:12;55.00;;;31.55;;
22168;SDS011;11250;53.674;10.102;2022-12-11T17:18:37;59.53;;;34.00;;
22168;SDS011;11250;53.674;10.102;2022-12-11T17:21:07;55.60;;;34.03;;
22168;SDS011;11250;53.674;10.102;2022-12-11T17:23:32;56.25;;;33.55;;
22168;SDS011;11250;53.674;10.102;2022-12-11T17:25:58;55.28;;;33.53;;
22168;SDS011;11250;53.674;10.102;2022-12-11T17:28:23;55.15;;;34.13;;
22168;SDS011;11250;53.674;10.102;2022-12-11T17:30:48;55.67;;;33.90;;
22168;SDS011;11250;53.674;10.102;2022-12-11T17:33:14;53.53;;;32.08;;
22168;SDS011;11250;53.674;10.102;2022-12-11T17:35:39;55.00;;;33.72;;
22168;SDS011;11250;53.674;10.102;2022-12-11T17:38:05;57.88;;;35.08;;
22168;SDS011;11250;53.674;10.102;2022-12-11T17:40:30;65.67;;;38.43;;
22168;SDS011;11250;53.674;10.102;2022-12-11T17:42:55;76.95;;;44.38;;
22168;SDS011;11250;53.674;10.102;2022-12-11T17:45:20;98.80;;;53.80;;
22168;SDS011;11250;53.674;10.102;2022-12-11T17:47:46;105.32;;;59.20;;
22168;SDS011;11250;53.674;10.102;2022-12-11T17:50:11;98.25;;;56.60;;
22168;SDS011;11250;53.674;10.102;2022-12-11T17:52:36;97.55;;;55.08;;
22168;SDS011;11250;53.674;10.102;2022-12-11T17:55:04;75.63;;;45.00;;
22168;SDS011;11250;53.674;10.102;2022-12-11T17:57:30;61.35;;;37.38;;
22168;SDS011;11250;53.674;10.102;2022-12-11T17:59:56;61.33;;;36.72;;
22168;SDS011;11250;53.674;10.102;2022-12-11T18:02:21;58.33;;;36.55;;
22168;SDS011;11250;53.674;10.102;2022-12-11T18:04:47;63.53;;;39.30;;
22168;SDS011;11250;53.674;10.102;2022-12-11T18:07:12;61.42;;;39.63;;
22168;SDS011;11250;53.674;10.102;2022-12-11T18:09:38;59.87;;;36.77;;
22168;SDS011;11250;53.674;10.102;2022-12-11T18:12:04;62.75;;;36.97;;
22168;SDS011;11250;53.674;10.102;2022-12-11T18:14:29;60.45;;;37.40;;
22168;SDS011;11250;53.674;10.102;2022-12-11T18:16:55;56.07;;;33.37;;
22168;SDS011;11250;53.674;10.102;2022-12-11T18:19:20;61.47;;;36.73;;
22168;SDS011;11250;53.674;10.102;2022-12-11T18:21:46;56.30;;;34.33;;
22168;SDS011;11250;53.674;10.102;2022-12-11T18:24:12;61.65;;;37.47;;
22168;SDS011;11250;53.674;10.102;2022-12-11T18:26:38;59.05;;;36.58;;
22168;SDS011;11250;53.674;10.102;2022-12-11T18:29:03;55.17;;;35.00;;
22168;SDS011;11250;53.674;10.102;2022-12-11T18:31:29;56.10;;;34.03;;
22168;SDS011;11250;53.674;10.102;2022-12-11T18:33:54;55.80;;;35.15;;
22168;SDS011;11250;53.674;10.102;2022-12-11T18:36:20;55.38;;;35.75;;
22168;SDS011;11250;53.674;10.102;2022-12-11T18:38:45;58.78;;;35.92;;
22168;SDS011;11250;53.674;10.102;2022-12-11T18:41:12;53.13;;;32.92;;
22168;SDS011;11250;53.674;10.102;2022-12-11T18:43:38;60.08;;;34.00;;
22168;SDS011;11250;53.674;10.102;2022-12-11T18:46:07;59.67;;;34.08;;
22168;SDS011;11250;53.674;10.102;2022-12-11T18:48:32;69.50;;;36.55;;
22168;SDS011;11250;53.674;10.102;2022-12-11T18:50:58;104.13;;;51.00;;
22168;SDS011;11250;53.674;10.102;2022-12-11T18:53:23;104.10;;;49.28;;
22168;SDS011;11250;53.674;10.102;2022-12-11T18:55:48;87.63;;;48.37;;
22168;SDS011;11250;53.674;10.102;2022-12-11T18:58:15;82.57;;;44.58;;
22168;SDS011;11250;53.674;10.102;2022-12-11T19:00:41;83.30;;;46.13;;
22168;SDS011;11250;53.674;10.102;2022-12-11T19:03:06;81.97;;;47.40;;
22168;SDS011;11250;53.674;10.102;2022-12-11T19:05:32;81.35;;;46.53;;
22168;SDS011;11250;53.674;10.102;2022-12-11T19:07:58;79.90;;;46.40;;
22168;SDS011;11250;53.674;10.102;2022-12-11T19:10:23;72.30;;;42.85;;
22168;SDS011;11250;53.674;10.102;2022-12-11T19:12:48;82.88;;;47.28;;
22168;SDS011;11250;53.674;10.102;2022-12-11T19:15:14;92.07;;;56.88;;
22168;SDS011;11250;53.674;10.102;2022-12-11T19:17:39;96.05;;;57.55;;
22168;SDS011;11250;53.674;10.102;2022-12-11T19:20:05;103.40;;;62.08;;
22168;SDS011;11250;53.674;10.102;2022-12-11T19:22:30;95.03;;;59.60;;
22168;SDS011;11250;53.674;10.102;2022-12-11T19:24:55;94.50;;;56.37;;
22168;SDS011;11250;53.674;10.102;2022-12-11T19:27:20;90.87;;;53.20;;
22168;SDS011;11250;53.674;10.102;2022-12-11T19:29:45;81.67;;;50.57;;
22168;SDS011;11250;53.674;10.102;2022-12-11T19:32:11;83.47;;;47.73;;
22168;SDS011;11250;53.674;10.102;2022-12-11T19:34:36;87.55;;;49.72;;
22168;SDS011;11250;53.674;10.102;2022-12-11T19:37:02;82.13;;;51.15;;
22168;SDS011;11250;53.674;10.102;2022-12-11T19:39:27;74.32;;;48.72;;
22168;SDS011;11250;53.674;10.102;2022-12-11T19:41:53;75.72;;;47.75;;
22168;SDS011;11250;53.674;10.102;2022-12-11T19:44:18;75.85;;;43.85;;
22168;SDS011;11250;53.674;10.102;2022-12-11T19:46:43;73.50;;;46.10;;
22168;SDS011;11250;53.674;10.102;2022-12-11T19:49:09;68.10;;;41.50;;
22168;SDS011;11250;53.674;10.102;2022-12-11T19:51:36;66.50;;;40.65;;
22168;SDS011;11250;53.674;10.102;2022-12-11T19:54:03;68.60;;;39.30;;
22168;SDS011;11250;53.674;10.102;2022-12-11T19:56:28;64.82;;;39.10;;
22168;SDS011;11250;53.674;10.102;2022-12-11T19:58:54;64.90;;;37.88;;
22168;SDS011;11250;53.674;10.102;2022-12-11T20:01:23;70.93;;;42.70;;
22168;SDS011;11250;53.674;10.102;2022-12-11T20:03:53;72.05;;;44.47;;
22168;SDS011;11250;53.674;10.102;2022-12-11T20:06:19;75.85;;;42.72;;
22168;SDS011;11250;53.674;10.102;2022-12-11T20:08:44;75.20;;;43.55;;
22168;SDS011;11250;53.674;10.102;2022-12-11T20:11:10;74.43;;;44.30;;
22168;SDS011;11250;53.674;10.102;2022-12-11T20:13:35;75.43;;;43.47;;
22168;SDS011;11250;53.674;10.102;2022-12-11T20:16:04;69.80;;;43.80;;
22168;SDS011;11250;53.674;10.102;2022-12-11T20:18:29;74.72;;;43.90;;
22168;SDS011;11250;53.674;10.102;2022-12-11T20:20:54;70.30;;;42.83;;
22168;SDS011;11250;53.674;10.102;2022-12-11T20:23:22;76.90;;;42.92;;
22168;SDS011;11250;53.674;10.102;2022-12-11T20:25:47;74.80;;;43.28;;
22168;SDS011;11250;53.674;10.102;2022-12-11T20:28:13;75.73;;;45.87;;
22168;SDS011;11250;53.674;10.102;2022-12-11T20:30:38;73.90;;;45.80;;
22168;SDS011;11250;53.674;10.102;2022-12-11T20:33:03;79.17;;;49.13;;
22168;SDS011;11250;53.674;10.102;2022-12-11T20:35:28;79.13;;;45.80;;
22168;SDS011;11250;53.674;10.102;2022-12-11T20:37:53;72.27;;;46.37;;
22168;SDS011;11250;53.674;10.102;2022-12-11T20:40:19;82.07;;;46.57;;
22168;SDS011;11250;53.674;10.102;2022-12-11T20:42:44;78.35;;;45.72;;
22168;SDS011;11250;53.674;10.102;2022-12-11T20:45:09;76.68;;;46.30;;
22168;SDS011;11250;53.674;10.102;2022-12-11T20:47:34;72.18;;;45.08;;
22168;SDS011;11250;53.674;10.102;2022-12-11T20:50:00;78.07;;;46.25;;
22168;SDS011;11250;53.674;10.102;2022-12-11T20:52:25;81.80;;;45.43;;
22168;SDS011;11250;53.674;10.102;2022-12-11T20:54:50;80.35;;;46.15;;
22168;SDS011;11250;53.674;10.102;2022-12-11T20:57:15;77.60;;;45.90;;
22168;SDS011;11250;53.674;10.102;2022-12-11T21:00:58;73.00;;;43.28;;
22168;SDS011;11250;53.674;10.102;2022-12-11T21:03:24;74.97;;;42.97;;
22168;SDS011;11250;53.674;10.102;2022-12-11T21:05:49;90.72;;;47.08;;
22168;SDS011;11250;53.674;10.102;2022-12-11T21:08:14;126.47;;;54.40;;
22168;SDS011;11250;53.674;10.102;2022-12-11T21:10:43;127.07;;;57.83;;
22168;SDS011;11250;53.674;10.102;2022-12-11T21:13:08;118.47;;;55.95;;
22168;SDS011;11250;53.674;10.102;2022-12-11T21:15:34;83.30;;;44.78;;
22168;SDS011;11250;53.674;10.102;2022-12-11T21:17:59;72.15;;;40.47;;
22168;SDS011;11250;53.674;10.102;2022-12-11T21:20:25;71.00;;;39.90;;
22168;SDS011;11250;53.674;10.102;2022-12-11T21:22:50;65.00;;;35.67;;
22168;SDS011;11250;53.674;10.102;2022-12-11T21:25:15;71.88;;;36.67;;
22168;SDS011;11250;53.674;10.102;2022-12-11T21:27:40;62.83;;;36.83;;
22168;SDS011;11250;53.674;10.102;2022-12-11T21:30:06;64.63;;;36.33;;
22168;SDS011;11250;53.674;10.102;2022-12-11T21:32:31;64.45;;;35.40;;
22168;SDS011;11250;53.674;10.102;2022-12-11T21:34:57;63.78;;;36.38;;
22168;SDS011;11250;53.674;10.102;2022-12-11T21:37:25;64.72;;;35.17;;
22168;SDS011;11250;53.674;10.102;2022-12-11T21:39:53;63.05;;;35.42;;
22168;SDS011;11250;53.674;10.102;2022-12-11T21:42:18;64.40;;;35.45;;
22168;SDS011;11250;53.674;10.102;2022-12-11T21:44:43;61.30;;;34.17;;
22168;SDS011;11250;53.674;10.102;2022-12-11T21:47:08;62.13;;;36.05;;
22168;SDS011;11250;53.674;10.102;2022-12-11T21:49:34;63.13;;;33.10;;
22168;SDS011;11250;53.674;10.102;2022-12-11T21:51:59;60.40;;;32.63;;
22168;SDS011;11250;53.674;10.102;2022-12-11T21:54:24;60.50;;;32.35;;
22168;SDS011;11250;53.674;10.102;2022-12-11T21:56:49;56.47;;;30.90;;
22168;SDS011;11250;53.674;10.102;2022-12-11T21:59:14;58.53;;;32.47;;
22168;SDS011;11250;53.674;10.102;2022-12-11T22:01:41;58.50;;;32.75;;
22168;SDS011;11250;53.674;10.102;2022-12-11T22:04:06;58.22;;;33.20;;
22168;SDS011;11250;53.674;10.102;2022-12-11T22:06:32;60.53;;;33.42;;
22168;SDS011;11250;53.674;10.102;2022-12-11T22:08:57;55.17;;;31.83;;
22168;SDS011;11250;53.674;10.102;2022-12-11T22:11:24;59.28;;;32.53;;
22168;SDS011;11250;53.674;10.102;2022-12-11T22:13:50;57.38;;;30.35;;
22168;SDS011;11250;53.674;10.102;2022-12-11T22:16:15;53.90;;;32.60;;
22168;SDS011;11250;53.674;10.102;2022-12-11T22:18:41;58.63;;;32.85;;
22168;SDS011;11250;53.674;10.102;2022-12-11T22:21:06;53.60;;;32.30;;
22168;SDS011;11250;53.674;10.102;2022-12-11T22:23:31;54.30;;;32.08;;
22168;SDS011;11250;53.674;10.102;2022-12-11T22:25:57;54.17;;;31.10;;
22168;SDS011;11250;53.674;10.102;2022-12-11T22:28:22;59.97;;;32.75;;
22168;SDS011;11250;53.674;10.102;2022-12-11T22:30:48;55.25;;;32.70;;
22168;SDS011;11250;53.674;10.102;2022-12-11T22:33:13;57.00;;;32.08;;
22168;SDS011;11250;53.674;10.102;2022-12-11T22:35:38;62.40;;;33.20;;
22168;SDS011;11250;53.674;10.102;2022-12-11T22:38:04;58.53;;;31.40;;
22168;SDS011;11250;53.674;10.102;2022-12-11T22:40:29;60.13;;;33.15;;
22168;SDS011;11250;53.674;10.102;2022-12-11T22:42:54;58.28;;;33.80;;
22168;SDS011;11250;53.674;10.102;2022-12-11T22:45:20;60.78;;;33.00;;
22168;SDS011;11250;53.674;10.102;2022-12-11T22:47:45;60.53;;;34.05;;
22168;SDS011;11250;53.674;10.102;2022-12-11T22:50:14;58.27;;;32.13;;
22168;SDS011;11250;53.674;10.102;2022-12-11T22:52:39;63.58;;;35.53;;
22168;SDS011;11250;53.674;10.102;2022-12-11T22:55:04;58.65;;;34.53;;
22168;SDS011;11250;53.674;10.102;2022-12-11T22:57:30;66.45;;;35.75;;
22168;SDS011;11250;53.674;10.102;2022-12-11T22:59:55;60.03;;;33.70;;
22168;SDS011;11250;53.674;10.102;2022-12-11T23:02:21;66.97;;;35.95;;
22168;SDS011;11250;53.674;10.102;2022-12-11T23:04:46;61.55;;;35.53;;
22168;SDS011;11250;53.674;10.102;2022-12-11T23:07:12;66.35;;;35.17;;
22168;SDS011;11250;53.674;10.102;2022-12-11T23:09:37;60.67;;;33.47;;
22168;SDS011;11250;53.674;10.102;2022-12-11T23:12:02;59.00;;;33.07;;
22168;SDS011;11250;53.674;10.102;2022-12-11T23:14:27;64.03;;;35.33;;
22168;SDS011;11250;53.674;10.102;2022-12-11T23:16:53;61.85;;;34.67;;
22168;SDS011;11250;53.674;10.102;2022-12-11T23:19:18;64.43;;;33.47;;
22168;SDS011;11250;53.674;10.102;2022-12-11T23:21:43;69.07;;;36.83;;
22168;SDS011;11250;53.674;10.102;2022-12-11T23:24:09;70.28;;;36.25;;
22168;SDS011;11250;53.674;10.102;2022-12-11T23:26:34;64.15;;;35.95;;
22168;SDS011;11250;53.674;10.102;2022-12-11T23:28:59;61.05;;;35.05;;
22168;SDS011;11250;53.674;10.102;2022-12-11T23:31:25;71.15;;;38.13;;
22168;SDS011;11250;53.674;10.102;2022-12-11T23:33:51;61.78;;;35.78;;
22168;SDS011;11250;53.674;10.102;2022-12-11T23:36:16;61.78;;;34.33;;
22168;SDS011;11250;53.674;10.102;2022-12-11T23:41:02;62.17;;;35.17;;
22168;SDS011;11250;53.674;10.102;2022-12-11T23:43:28;62.08;;;34.67;;
22168;SDS011;11250;53.674;10.102;2022-12-11T23:45:53;63.95;;;34.72;;
22168;SDS011;11250;53.674;10.102;2022-12-11T23:48:18;65.38;;;35.20;;
22168;SDS011;11250;53.674;10.102;2022-12-11T23:50:43;61.33;;;33.97;;
22168;SDS011;11250;53.674;10.102;2022-12-11T23:53:09;58.03;;;33.08;;
22168;SDS011;11250;53.674;10.102;2022-12-11T23:55:36;59.38;;;33.67;;
22168;SDS011;11250;53.674;10.102;2022-12-11T23:58:02;60.15;;;34.28;;
